Time;durP1;ratioP1;P1;durP2;ratioP2;P2;SDS_P1;SDS_P2;PMS_P1;PMS_P2;Temp;Humidity;BMP_temperature;BMP_pressure;BME280_temperature;BME280_humidity;BME280_pressure;Samples;Min_cycle;Max_cycle;Signal;HPM_P1;HPM_P2
2022/04/11 00:00:36;;;;;;;2.50;2.20;;;;;19.80;100845.00;;;;2079214;28;20297;-47
2022/04/11 00:01:37;;;;;;;2.57;2.37;;;;;19.80;100850.00;;;;2079013;28;20770;-46
2022/04/11 00:02:37;;;;;;;2.77;2.57;;;;;19.80;100847.00;;;;2079314;28;20588;-46
2022/04/11 00:03:37;;;;;;;3.50;3.20;;;;;19.80;100844.00;;;;2079465;28;20219;-46
2022/04/11 00:04:38;;;;;;;3.47;2.87;;;;;19.80;100850.00;;;;2079358;28;20213;-46
2022/04/11 00:05:38;;;;;;;3.03;2.60;;;;;19.80;100852.00;;;;2078363;28;20217;-46
2022/04/11 00:06:38;;;;;;;2.53;2.33;;;;;19.80;100837.00;;;;2079095;28;20352;-46
2022/04/11 00:07:39;;;;;;;3.43;3.13;;;;;19.80;100851.00;;;;2078894;28;20264;-47
2022/04/11 00:08:40;;;;;;;2.97;2.60;;;;;19.80;100846.00;;;;2079356;28;20213;-47
2022/04/11 00:09:40;;;;;;;3.03;2.83;;;;;19.80;100848.00;;;;2079177;28;20213;-46
2022/04/11 00:10:40;;;;;;;3.33;2.60;;;;;19.80;100853.00;;;;2079245;28;20459;-46
2022/04/11 00:11:41;;;;;;;2.90;2.60;;;;;19.80;100850.00;;;;2078466;28;20841;-46
2022/04/11 00:12:41;;;;;;;3.07;2.80;;;;;19.80;100853.00;;;;2079206;28;20581;-46
2022/04/11 00:13:41;;;;;;;2.80;2.60;;;;;19.80;100850.00;;;;2079085;28;20332;-46
2022/04/11 00:14:42;;;;;;;3.53;3.13;;;;;19.80;100852.00;;;;2079235;28;20210;-46
2022/04/11 00:15:42;;;;;;;3.13;2.80;;;;;19.80;100855.00;;;;2072332;28;20307;-46
2022/04/11 00:16:42;;;;;;;3.23;2.80;;;;;19.80;100845.00;;;;2086540;28;20770;-46
2022/04/11 00:17:43;;;;;;;2.80;2.60;;;;;19.80;100848.00;;;;2090703;28;20217;-46
2022/04/11 00:18:43;;;;;;;3.70;2.73;;;;;19.80;100847.00;;;;2079639;28;20279;-46
2022/04/11 00:19:43;;;;;;;2.90;2.70;;;;;19.80;100837.00;;;;2078406;28;20333;-46
2022/04/11 00:20:45;;;;;;;4.80;2.70;;;;;19.80;100852.00;;;;2078567;28;20224;-47
2022/04/11 00:21:45;;;;;;;3.80;2.67;;;;;19.80;100849.00;;;;2079135;28;20209;-46
2022/04/11 00:22:45;;;;;;;3.10;2.50;;;;;19.80;100847.00;;;;2071041;28;20288;-47
2022/04/11 00:23:46;;;;;;;3.67;2.90;;;;;19.80;100838.00;;;;2071066;28;20268;-46
2022/04/11 00:24:46;;;;;;;2.77;2.57;;;;;19.80;100848.00;;;;2070866;28;20218;-46
2022/04/11 00:25:46;;;;;;;3.30;3.00;;;;;19.80;100838.00;;;;2070318;28;20246;-46
2022/04/11 00:26:47;;;;;;;2.77;2.57;;;;;19.80;100846.00;;;;2069476;28;20218;-46
2022/04/11 00:27:47;;;;;;;3.03;2.77;;;;;19.80;100847.00;;;;2070387;28;20217;-46
2022/04/11 00:28:47;;;;;;;2.43;2.20;;;;;19.80;100837.00;;;;2070797;28;20211;-46
2022/04/11 00:29:47;;;;;;;3.40;2.57;;;;;19.80;100846.00;;;;2070772;28;20218;-47
2022/04/11 00:30:48;;;;;;;3.30;3.00;;;;;19.80;100843.00;;;;2070759;28;20202;-47
2022/04/11 00:31:48;;;;;;;2.67;2.20;;;;;19.80;100845.00;;;;2078241;28;20817;-52
2022/04/11 00:32:49;;;;;;;3.60;3.00;;;;;19.80;100845.00;;;;2079244;28;20218;-48
2022/04/11 00:33:49;;;;;;;2.77;2.50;;;;;19.70;100852.00;;;;2078918;28;20561;-47
2022/04/11 00:34:49;;;;;;;3.03;2.80;;;;;19.70;100844.00;;;;2079089;28;20562;-46
2022/04/11 00:35:50;;;;;;;2.60;2.40;;;;;19.80;100839.00;;;;2079413;28;20645;-46
2022/04/11 00:36:50;;;;;;;3.00;2.70;;;;;19.80;100843.00;;;;2087254;28;20579;-46
2022/04/11 00:37:50;;;;;;;3.40;3.10;;;;;19.80;100843.00;;;;2087104;28;21246;-47
2022/04/11 00:38:50;;;;;;;3.30;2.80;;;;;19.70;100844.00;;;;2087222;28;20639;-47
2022/04/11 00:39:51;;;;;;;2.80;2.60;;;;;19.80;100838.00;;;;2086127;28;20228;-46
2022/04/11 00:40:51;;;;;;;2.80;2.60;;;;;19.80;100838.00;;;;2087297;28;20600;-46
2022/04/11 00:41:51;;;;;;;3.43;2.93;;;;;19.80;100833.00;;;;2087086;28;20248;-46
2022/04/11 00:42:52;;;;;;;3.30;2.80;;;;;19.80;100844.00;;;;2087183;28;20219;-46
2022/04/11 00:43:52;;;;;;;3.50;3.20;;;;;19.80;100839.00;;;;2086347;28;20220;-47
2022/04/11 00:44:53;;;;;;;3.00;2.70;;;;;19.70;100839.00;;;;2078710;28;20241;-47
2022/04/11 00:45:53;;;;;;;3.07;2.80;;;;;19.70;100836.00;;;;2078252;28;20213;-46
2022/04/11 00:46:53;;;;;;;2.80;2.43;;;;;19.70;100833.00;;;;2078889;28;20224;-46
2022/04/11 00:47:54;;;;;;;3.13;2.93;;;;;19.70;100826.00;;;;2086207;28;20224;-46
2022/04/11 00:48:54;;;;;;;3.20;2.90;;;;;19.70;100836.00;;;;2086933;28;20243;-46
2022/04/11 00:49:59;;;;;;;2.63;2.43;;;;;19.70;100829.00;;;;2087115;28;20208;-46
2022/04/11 00:51:17;;;;;;;2.97;2.60;;;;;19.70;100823.00;;;;2086400;28;20235;-46
2022/04/11 00:52:17;;;;;;;3.10;2.80;;;;;19.70;100823.00;;;;2076215;28;20318;-46
2022/04/11 00:53:18;;;;;;;3.80;3.00;;;;;19.70;100827.00;;;;2078202;28;20217;-46
2022/04/11 00:54:18;;;;;;;3.20;2.83;;;;;19.70;100822.00;;;;2079896;28;20244;-47
2022/04/11 00:55:20;;;;;;;3.10;2.80;;;;;19.70;100838.00;;;;2069795;28;20249;-46
2022/04/11 00:56:20;;;;;;;3.70;3.15;;;;;19.70;100826.00;;;;2077883;28;20296;-46
2022/04/11 00:57:21;;;;;;;3.23;2.70;;;;;19.70;100822.00;;;;2078480;28;20213;-46
2022/04/11 00:58:21;;;;;;;3.25;2.95;;;;;19.70;100827.00;;;;2079173;28;20213;-46
2022/04/11 00:59:22;;;;;;;3.67;2.67;;;;;19.70;100818.00;;;;2076174;28;20668;-46
2022/04/11 01:00:22;;;;;;;3.10;2.70;;;;;19.70;100822.00;;;;2074410;28;20232;-46
2022/04/11 01:01:22;;;;;;;2.53;2.33;;;;;19.70;100823.00;;;;2069497;28;20655;-50
2022/04/11 01:02:23;;;;;;;3.00;2.77;;;;;19.70;100827.00;;;;2070012;28;20214;-49
2022/04/11 01:03:23;;;;;;;2.90;2.50;;;;;19.70;100818.00;;;;2070030;28;20757;-47
2022/04/11 01:04:24;;;;;;;2.83;2.63;;;;;19.70;100835.00;;;;2074291;28;20693;-47
2022/04/11 01:05:24;;;;;;;2.60;2.40;;;;;19.70;100815.00;;;;2069896;28;20548;-46
2022/04/11 01:06:25;;;;;;;2.97;2.67;;;;;19.70;100817.00;;;;2070665;28;20300;-46
2022/04/11 01:07:25;;;;;;;4.75;2.60;;;;;19.70;100817.00;;;;2070194;28;20280;-46
2022/04/11 01:08:26;;;;;;;3.00;2.70;;;;;19.70;100817.00;;;;2070687;28;20246;-47
2022/04/11 01:09:26;;;;;;;3.30;2.57;;;;;19.70;100815.00;;;;2073822;28;20594;-46
2022/04/11 01:10:27;;;;;;;3.07;2.77;;;;;19.70;100817.00;;;;2077981;28;20288;-46
2022/04/11 01:11:27;;;;;;;3.50;3.17;;;;;19.70;100811.00;;;;2078250;28;20247;-46
2022/04/11 01:12:27;;;;;;;3.20;2.90;;;;;19.70;100813.00;;;;2072603;28;20466;-46
2022/04/11 01:13:28;;;;;;;3.00;2.70;;;;;19.70;100816.00;;;;2069478;28;20237;-46
2022/04/11 01:14:29;;;;;;;3.05;2.60;;;;;19.70;100816.00;;;;2069327;28;20527;-46
2022/04/11 01:15:29;;;;;;;3.00;2.70;;;;;19.70;100814.00;;;;2069440;28;20214;-46
2022/04/11 01:16:29;;;;;;;2.80;2.60;;;;;19.70;100814.00;;;;2070305;28;20233;-46
2022/04/11 01:17:37;;;;;;;3.30;3.00;;;;;19.70;100814.00;;;;2069374;28;20225;-46
2022/04/11 01:18:38;;;;;;;3.35;3.03;;;;;19.70;100811.00;;;;2074893;28;20563;-46
2022/04/11 01:19:38;;;;;;;3.00;2.80;;;;;19.70;100809.00;;;;2078196;28;20258;-46
2022/04/11 01:20:39;;;;;;;3.00;2.70;;;;;19.70;100814.00;;;;2078346;28;20206;-47
2022/04/11 01:21:39;;;;;;;3.00;2.67;;;;;19.70;100811.00;;;;2078341;28;20201;-47
2022/04/11 01:22:39;;;;;;;2.60;2.40;;;;;19.70;100806.00;;;;2078293;28;20212;-46
2022/04/11 01:23:40;;;;;;;3.33;2.93;;;;;19.70;100806.00;;;;2077926;28;20202;-46
2022/04/11 01:24:40;;;;;;;2.97;2.37;;;;;19.60;100807.00;;;;2078680;28;20202;-46
2022/04/11 01:25:40;;;;;;;3.07;2.77;;;;;19.70;100808.00;;;;2078010;28;20202;-46
2022/04/11 01:26:41;;;;;;;2.40;2.20;;;;;19.70;100795.00;;;;2078121;28;20205;-46
2022/04/11 01:27:41;;;;;;;2.60;2.40;;;;;19.70;100804.00;;;;2067771;28;20304;-46
2022/04/11 01:28:42;;;;;;;2.87;2.57;;;;;19.70;100810.00;;;;2069536;28;20263;-45
2022/04/11 01:29:42;;;;;;;3.30;2.93;;;;;19.60;100799.00;;;;2070412;28;20205;-45
2022/04/11 01:30:42;;;;;;;3.10;2.80;;;;;19.60;100797.00;;;;2070551;28;20290;-46
2022/04/11 01:31:43;;;;;;;2.90;2.63;;;;;19.60;100805.00;;;;2070613;28;20206;-45
2022/04/11 01:32:43;;;;;;;3.40;3.10;;;;;19.70;100792.00;;;;2070622;28;20687;-45
2022/04/11 01:33:43;;;;;;;2.87;2.57;;;;;19.70;100798.00;;;;2069470;28;20241;-47
2022/04/11 01:34:44;;;;;;;3.13;2.83;;;;;19.60;100794.00;;;;2069600;28;20218;-46
2022/04/11 01:35:44;;;;;;;2.63;2.33;;;;;19.60;100797.00;;;;2069764;28;20214;-46
2022/04/11 01:36:44;;;;;;;2.83;2.60;;;;;19.60;100795.00;;;;2070657;28;20218;-45
2022/04/11 01:37:45;;;;;;;2.60;2.40;;;;;19.60;100794.00;;;;2070198;28;20321;-46
2022/04/11 01:38:45;;;;;;;2.73;2.40;;;;;19.60;100799.00;;;;2070631;28;20207;-47
2022/04/11 01:39:45;;;;;;;3.20;2.70;;;;;19.60;100781.00;;;;2076406;28;20232;-46
2022/04/11 01:40:53;;;;;;;3.37;2.80;;;;;19.60;100792.00;;;;2072372;28;20214;-47
2022/04/11 01:41:53;;;;;;;2.53;2.33;;;;;19.60;100794.00;;;;2078631;28;20221;-46
2022/04/11 01:42:54;;;;;;;2.93;2.63;;;;;19.60;100784.00;;;;2078490;28;20259;-46
2022/04/11 01:43:54;;;;;;;2.50;2.30;;;;;19.60;100792.00;;;;2077094;28;20209;-46
2022/04/11 01:44:54;;;;;;;2.80;2.60;;;;;19.60;100793.00;;;;2070278;28;20218;-47
2022/04/11 01:45:55;;;;;;;2.80;2.60;;;;;19.60;100756.00;;;;2069833;28;20621;-46
2022/04/11 01:46:55;;;;;;;2.90;2.60;;;;;19.60;100787.00;;;;2068980;28;20743;-45
2022/04/11 01:47:55;;;;;;;3.17;2.43;;;;;19.60;100783.00;;;;2068998;28;20218;-46
2022/04/11 01:48:56;;;;;;;2.60;2.40;;;;;19.60;100779.00;;;;2070412;28;20237;-46
2022/04/11 01:49:56;;;;;;;2.87;2.67;;;;;19.60;100788.00;;;;2070494;28;20218;-46
2022/04/11 01:50:56;;;;;;;2.60;2.40;;;;;19.60;100788.00;;;;2070569;28;20218;-45
2022/04/11 01:51:57;;;;;;;2.47;2.27;;;;;19.60;100788.00;;;;2070708;28;20217;-46
2022/04/11 01:53:10;;;;;;;3.30;2.60;;;;;19.60;100786.00;;;;2070678;28;20233;-46
2022/04/11 01:54:11;;;;;;;2.45;2.25;;;;;19.60;100781.00;;;;2083167;28;20732;-47
2022/04/11 01:55:11;;;;;;;3.20;2.90;;;;;19.60;100785.00;;;;2086829;28;20215;-46
2022/04/11 01:56:11;;;;;;;3.20;2.90;;;;;19.60;100784.00;;;;2079698;28;20635;-46
2022/04/11 01:57:12;;;;;;;2.50;2.30;;;;;19.60;100789.00;;;;2078336;28;20860;-47
2022/04/11 01:58:12;;;;;;;4.00;3.10;;;;;19.60;100781.00;;;;2078325;28;20255;-47
2022/04/11 01:59:14;;;;;;;3.33;2.57;;;;;19.60;100782.00;;;;2080193;28;20217;-46
2022/04/11 02:00:15;;;;;;;2.42;2.22;;;;;19.60;100780.00;;;;2086862;28;20212;-47
2022/04/11 02:01:18;;;;;;;2.83;2.63;;;;;19.60;100776.00;;;;2086876;28;20240;-47
2022/04/11 02:02:18;;;;;;;2.80;2.60;;;;;19.60;100783.00;;;;2086805;28;20307;-46
2022/04/11 02:03:19;;;;;;;2.73;2.40;;;;;19.60;100781.00;;;;2086741;28;20209;-45
2022/04/11 02:04:19;;;;;;;2.63;2.43;;;;;19.60;100779.00;;;;2078877;28;20233;-46
2022/04/11 02:05:19;;;;;;;2.87;2.60;;;;;19.60;100776.00;;;;2077996;28;20209;-46
2022/04/11 02:06:20;;;;;;;2.90;2.70;;;;;19.60;100776.00;;;;2078373;28;20209;-46
2022/04/11 02:07:20;;;;;;;2.70;2.50;;;;;19.60;100775.00;;;;2083408;28;20212;-46
2022/04/11 02:08:20;;;;;;;3.33;2.60;;;;;19.60;100786.00;;;;2086639;28;20213;-46
2022/04/11 02:09:21;;;;;;;3.00;2.50;;;;;19.60;100778.00;;;;2086676;28;20223;-46
2022/04/11 02:10:21;;;;;;;2.80;2.60;;;;;19.60;100780.00;;;;2086717;28;22151;-46
2022/04/11 02:11:21;;;;;;;2.70;2.50;;;;;19.60;100779.00;;;;2086422;28;20593;-47
2022/04/11 02:12:22;;;;;;;2.47;2.27;;;;;19.60;100771.00;;;;2084023;28;20255;-46
2022/04/11 02:13:22;;;;;;;3.30;2.67;;;;;19.60;100771.00;;;;2077694;28;20245;-46
2022/04/11 02:14:22;;;;;;;3.17;2.90;;;;;19.60;100769.00;;;;2078076;28;20780;-46
2022/04/11 02:15:23;;;;;;;2.90;2.60;;;;;19.60;100770.00;;;;2085924;28;20296;-47
2022/04/11 02:16:23;;;;;;;2.53;2.33;;;;;19.60;100776.00;;;;2086688;28;20216;-46
2022/04/11 02:17:23;;;;;;;2.97;2.60;;;;;19.60;100769.00;;;;2086395;28;20212;-46
2022/04/11 02:18:24;;;;;;;3.10;2.80;;;;;19.60;100775.00;;;;2086392;28;20219;-46
2022/04/11 02:19:24;;;;;;;2.97;2.60;;;;;19.60;100776.00;;;;2086746;28;20274;-46
2022/04/11 02:20:24;;;;;;;2.70;2.50;;;;;19.60;100774.00;;;;2086806;28;20251;-47
2022/04/11 02:21:25;;;;;;;2.80;2.53;;;;;19.60;100766.00;;;;2086674;28;20271;-46
2022/04/11 02:22:25;;;;;;;3.30;3.00;;;;;19.60;100769.00;;;;2086727;28;20404;-47
2022/04/11 02:23:25;;;;;;;2.60;2.40;;;;;19.60;100767.00;;;;2078385;28;20290;-46
2022/04/11 02:24:26;;;;;;;3.00;2.43;;;;;19.60;100767.00;;;;2078246;28;20224;-46
2022/04/11 02:25:27;;;;;;;2.87;2.53;;;;;19.60;100767.00;;;;2077550;28;20229;-46
2022/04/11 02:26:27;;;;;;;2.58;2.38;;;;;19.60;100769.00;;;;2081976;28;20321;-46
2022/04/11 02:27:28;;;;;;;2.90;2.60;;;;;19.60;100758.00;;;;2086468;28;20592;-47
2022/04/11 02:28:28;;;;;;;3.10;2.57;;;;;19.60;100764.00;;;;2086494;28;20217;-46
2022/04/11 02:29:28;;;;;;;2.60;2.40;;;;;19.60;100762.00;;;;2086709;28;20309;-46
2022/04/11 02:30:29;;;;;;;3.40;2.27;;;;;19.60;100760.00;;;;2086569;28;20220;-46
2022/04/11 02:31:29;;;;;;;3.00;2.70;;;;;19.60;100767.00;;;;2086712;28;20623;-46
2022/04/11 02:32:29;;;;;;;2.60;2.40;;;;;19.60;100763.00;;;;2086722;28;20817;-46
2022/04/11 02:33:30;;;;;;;3.20;2.67;;;;;19.60;100767.00;;;;2080865;28;20625;-46
2022/04/11 02:34:31;;;;;;;2.93;2.60;;;;;19.60;100757.00;;;;2078453;28;20336;-46
2022/04/11 02:35:31;;;;;;;2.50;2.30;;;;;19.60;100765.00;;;;2086981;28;20274;-46
2022/04/11 02:36:31;;;;;;;3.37;2.60;;;;;19.60;100768.00;;;;2088163;28;20439;-46
2022/04/11 02:37:33;;;;;;;3.00;2.50;;;;;19.60;100761.00;;;;2086117;28;20228;-46
2022/04/11 02:38:33;;;;;;;3.00;2.50;;;;;19.50;100765.00;;;;2079841;28;20221;-47
2022/04/11 02:39:33;;;;;;;2.53;2.33;;;;;19.60;100760.00;;;;2079980;28;20311;-46
2022/04/11 02:40:34;;;;;;;2.60;2.40;;;;;19.60;100768.00;;;;2079280;28;20209;-46
2022/04/11 02:41:34;;;;;;;3.60;2.70;;;;;19.50;100764.00;;;;2079935;28;20224;-47
2022/04/11 02:42:35;;;;;;;2.57;2.37;;;;;19.50;100765.00;;;;2079872;28;20635;-46
2022/04/11 02:43:35;;;;;;;2.70;2.40;;;;;19.60;100763.00;;;;2079976;28;20209;-47
2022/04/11 02:44:35;;;;;;;2.67;2.47;;;;;19.60;100755.00;;;;2079974;28;20213;-47
2022/04/11 02:45:36;;;;;;;3.37;3.07;;;;;19.50;100757.00;;;;2079043;28;20213;-46
2022/04/11 02:46:36;;;;;;;2.53;2.33;;;;;19.50;100763.00;;;;2080110;28;20271;-46
2022/04/11 02:47:36;;;;;;;2.53;2.33;;;;;19.50;100763.00;;;;2079662;28;20220;-46
2022/04/11 02:48:38;;;;;;;2.60;2.40;;;;;19.50;100766.00;;;;2087569;28;20212;-46
2022/04/11 02:49:38;;;;;;;2.80;2.50;;;;;19.50;100767.00;;;;2087183;28;20205;-46
2022/04/11 02:50:39;;;;;;;2.67;2.47;;;;;19.50;100773.00;;;;2080850;28;20442;-46
2022/04/11 02:51:39;;;;;;;2.60;2.33;;;;;19.50;100770.00;;;;2086950;28;20236;-47
2022/04/11 02:52:39;;;;;;;2.83;2.63;;;;;19.50;100768.00;;;;2083703;28;20271;-46
2022/04/11 02:53:40;;;;;;;3.30;2.70;;;;;19.50;100765.00;;;;2079780;28;20275;-47
2022/04/11 02:54:40;;;;;;;3.00;2.73;;;;;19.50;100766.00;;;;2078803;28;20206;-46
2022/04/11 02:55:40;;;;;;;2.27;2.07;;;;;19.50;100772.00;;;;2078551;28;20281;-47
2022/04/11 02:56:41;;;;;;;2.60;2.40;;;;;19.50;100782.00;;;;2079691;28;20210;-46
2022/04/11 02:57:41;;;;;;;3.03;2.10;;;;;19.50;100774.00;;;;2079565;28;20267;-46
2022/04/11 02:58:41;;;;;;;3.00;2.40;;;;;19.50;100773.00;;;;2085501;28;20288;-46
2022/04/11 02:59:42;;;;;;;2.20;2.00;;;;;19.50;100775.00;;;;2085102;28;20640;-47
2022/04/11 03:00:42;;;;;;;2.60;2.40;;;;;19.50;100769.00;;;;2077959;28;20583;-47
2022/04/11 03:01:43;;;;;;;2.73;2.53;;;;;19.50;100779.00;;;;2089035;28;20222;-46
2022/04/11 03:02:43;;;;;;;2.40;2.20;;;;;19.50;100783.00;;;;2087023;28;20206;-46
2022/04/11 03:03:43;;;;;;;3.07;2.77;;;;;19.50;100783.00;;;;2079955;28;20694;-46
2022/04/11 03:04:43;;;;;;;2.30;2.10;;;;;19.50;100778.00;;;;2079494;28;20601;-46
2022/04/11 03:05:44;;;;;;;2.63;2.43;;;;;19.50;100776.00;;;;2079485;28;20709;-46
2022/04/11 03:06:44;;;;;;;2.27;2.07;;;;;19.50;100779.00;;;;2080019;28;20312;-46
2022/04/11 03:07:44;;;;;;;2.30;2.10;;;;;19.50;100780.00;;;;2082128;28;20271;-47
2022/04/11 03:08:45;;;;;;;2.50;2.30;;;;;19.50;100779.00;;;;2087848;28;20213;-46
2022/04/11 03:09:45;;;;;;;2.80;2.30;;;;;19.50;100780.00;;;;2087659;28;20212;-47
2022/04/11 03:10:46;;;;;;;2.60;2.40;;;;;19.50;100779.00;;;;2088007;28;20220;-46
2022/04/11 03:11:46;;;;;;;2.53;2.33;;;;;19.50;100778.00;;;;2085668;28;20208;-47
2022/04/11 03:12:46;;;;;;;2.50;2.30;;;;;19.50;100778.00;;;;2082006;28;20283;-46
2022/04/11 03:13:48;;;;;;;2.97;2.30;;;;;19.50;100776.00;;;;2086875;28;20216;-47
2022/04/11 03:14:51;;;;;;;2.53;2.33;;;;;19.50;100776.00;;;;2087644;28;20220;-46
2022/04/11 03:15:51;;;;;;;2.90;2.35;;;;;19.50;100778.00;;;;2087166;28;20221;-47
2022/04/11 03:16:52;;;;;;;2.53;2.33;;;;;19.50;100783.00;;;;2087835;28;20237;-46
2022/04/11 03:17:52;;;;;;;2.70;2.50;;;;;19.50;100776.00;;;;2086896;28;20221;-47
2022/04/11 03:18:52;;;;;;;2.80;2.60;;;;;19.50;100775.00;;;;2086870;28;20224;-47
2022/04/11 03:19:53;;;;;;;3.10;2.70;;;;;19.50;100782.00;;;;2087879;28;20291;-46
2022/04/11 03:20:53;;;;;;;2.33;2.03;;;;;19.50;100777.00;;;;2087863;28;20247;-46
2022/04/11 03:21:53;;;;;;;2.60;2.40;;;;;19.50;100778.00;;;;2087793;28;20209;-46
2022/04/11 03:22:54;;;;;;;2.60;2.40;;;;;19.50;100775.00;;;;2086624;28;20205;-46
2022/04/11 03:23:54;;;;;;;2.27;2.07;;;;;19.50;100783.00;;;;2079154;28;20233;-46
2022/04/11 03:24:54;;;;;;;2.80;2.60;;;;;19.50;100770.00;;;;2085460;28;20235;-46
2022/04/11 03:25:55;;;;;;;2.77;2.57;;;;;19.50;100774.00;;;;2078559;28;20240;-46
2022/04/11 03:26:55;;;;;;;2.77;2.50;;;;;19.50;100787.00;;;;2079453;28;20791;-46
2022/04/11 03:27:55;;;;;;;3.93;2.80;;;;;19.50;100770.00;;;;2079423;28;21110;-47
2022/04/11 03:28:56;;;;;;;2.40;2.20;;;;;19.50;100769.00;;;;2079320;28;20259;-46
2022/04/11 03:29:56;;;;;;;2.10;1.90;;;;;19.50;100764.00;;;;2079629;28;20256;-46
2022/04/11 03:30:56;;;;;;;2.77;2.57;;;;;19.50;100771.00;;;;2079614;28;20263;-47
2022/04/11 03:31:57;;;;;;;2.30;2.10;;;;;19.50;100762.00;;;;2079623;28;20209;-46
2022/04/11 03:32:57;;;;;;;2.40;2.20;;;;;19.50;100779.00;;;;2083054;28;20296;-46
2022/04/11 03:33:57;;;;;;;2.47;2.20;;;;;19.50;100794.00;;;;2079541;28;20582;-46
2022/04/11 03:34:58;;;;;;;2.00;1.80;;;;;19.30;100764.00;;;;2083722;28;20719;-46
2022/04/11 03:35:58;;;;;;;2.47;2.27;;;;;19.50;100770.00;;;;2086784;28;20213;-46
2022/04/11 03:36:58;;;;;;;2.10;1.73;;;;;19.50;100775.00;;;;2085434;28;20208;-46
2022/04/11 03:37:59;;;;;;;2.80;2.53;;;;;19.50;100778.00;;;;2082508;28;20247;-46
2022/04/11 03:38:59;;;;;;;2.43;2.23;;;;;19.50;100771.00;;;;2087675;28;20213;-46
2022/04/11 03:39:59;;;;;;;2.63;2.20;;;;;19.50;100770.00;;;;2087586;28;20251;-46
2022/04/11 03:41:00;;;;;;;3.00;2.37;;;;;19.50;100776.00;;;;2087631;28;20245;-46
2022/04/11 03:42:00;;;;;;;2.00;1.87;;;;;19.50;100772.00;;;;2084877;28;20214;-46
2022/04/11 03:43:00;;;;;;;2.50;2.30;;;;;19.50;100772.00;;;;2079487;28;20206;-46
2022/04/11 03:44:01;;;;;;;2.40;2.20;;;;;19.50;100772.00;;;;2087670;28;20205;-46
2022/04/11 03:45:01;;;;;;;2.53;2.33;;;;;19.50;100762.00;;;;2087551;28;20216;-46
2022/04/11 03:46:01;;;;;;;2.23;2.03;;;;;19.50;100772.00;;;;2083718;28;20227;-46
2022/04/11 03:47:03;;;;;;;3.10;2.47;;;;;19.50;100770.00;;;;2079041;28;20214;-47
2022/04/11 03:48:03;;;;;;;3.20;2.40;;;;;19.40;100763.00;;;;2079017;28;20590;-46
2022/04/11 03:49:04;;;;;;;2.37;2.17;;;;;19.40;100767.00;;;;2079298;28;20218;-46
2022/04/11 03:50:04;;;;;;;1.97;1.87;;;;;19.50;100765.00;;;;2079530;28;20225;-47
2022/04/11 03:51:05;;;;;;;2.37;2.17;;;;;19.40;100768.00;;;;2079342;28;21111;-46
2022/04/11 03:52:05;;;;;;;2.37;2.17;;;;;19.50;100765.00;;;;2087424;28;20240;-47
2022/04/11 03:53:06;;;;;;;2.10;1.90;;;;;19.50;100767.00;;;;2087216;28;20258;-46
2022/04/11 03:54:06;;;;;;;2.07;1.87;;;;;19.40;100763.00;;;;2081350;28;20233;-46
2022/04/11 03:55:07;;;;;;;2.03;1.87;;;;;19.50;100768.00;;;;2079235;28;20666;-47
2022/04/11 03:56:07;;;;;;;2.97;2.40;;;;;19.40;100761.00;;;;2078496;28;20221;-47
2022/04/11 03:57:07;;;;;;;2.40;2.20;;;;;19.40;100769.00;;;;2078022;28;20290;-46
2022/04/11 03:58:08;;;;;;;2.37;1.83;;;;;19.40;100762.00;;;;2078605;28;20210;-46
2022/04/11 03:59:08;;;;;;;2.80;2.40;;;;;19.40;100767.00;;;;2079060;28;20474;-46
2022/04/11 04:00:09;;;;;;;2.67;2.20;;;;;19.40;100781.00;;;;2086496;28;20688;-46
2022/04/11 04:01:09;;;;;;;2.77;2.10;;;;;19.40;100772.00;;;;2086306;28;20217;-47
2022/04/11 04:02:10;;;;;;;2.10;1.90;;;;;19.40;100768.00;;;;2086152;28;20216;-47
2022/04/11 04:03:11;;;;;;;1.90;1.70;;;;;19.40;100764.00;;;;2086610;28;20209;-46
2022/04/11 04:04:12;;;;;;;2.35;2.15;;;;;19.40;100764.00;;;;2086649;28;20212;-47
2022/04/11 04:05:12;;;;;;;2.30;2.10;;;;;19.40;100768.00;;;;2082612;28;20216;-46
2022/04/11 04:06:12;;;;;;;2.30;2.10;;;;;19.40;100771.00;;;;2086550;28;20216;-47
2022/04/11 04:07:13;;;;;;;2.10;1.90;;;;;19.40;100769.00;;;;2086439;28;20208;-46
2022/04/11 04:08:13;;;;;;;1.80;1.70;;;;;19.40;100766.00;;;;2086645;28;20219;-46
2022/04/11 04:09:13;;;;;;;2.60;2.07;;;;;19.50;100764.00;;;;2086706;28;20205;-46
2022/04/11 04:10:14;;;;;;;2.00;1.80;;;;;19.40;100757.00;;;;2083879;28;20219;-46
2022/04/11 04:11:14;;;;;;;2.20;2.00;;;;;19.40;100764.00;;;;2086707;28;20204;-47
2022/04/11 04:12:21;;;;;;;1.90;1.80;;;;;19.50;100752.00;;;;2086820;28;20212;-47
2022/04/11 04:13:21;;;;;;;3.05;1.88;;;;;19.40;100681.00;;;;2075462;28;20217;-46
2022/04/11 04:14:22;;;;;;;2.10;1.90;;;;;19.40;100756.00;;;;2089122;28;20225;-46
2022/04/11 04:15:22;;;;;;;2.47;2.23;;;;;19.40;100750.00;;;;2089588;28;20304;-47
2022/04/11 04:16:23;;;;;;;2.30;2.10;;;;;19.40;100749.00;;;;2087336;28;20750;-47
2022/04/11 04:17:23;;;;;;;2.50;2.30;;;;;19.40;100753.00;;;;2087272;28;20212;-46
2022/04/11 04:18:23;;;;;;;2.00;1.80;;;;;19.40;100743.00;;;;2087147;28;20557;-46
2022/04/11 04:19:24;;;;;;;2.00;1.80;;;;;19.40;100747.00;;;;2086670;28;20216;-46
2022/04/11 04:20:26;;;;;;;2.20;2.00;;;;;19.40;100749.00;;;;2082180;28;20247;-47
2022/04/11 04:21:26;;;;;;;1.85;1.75;;;;;19.40;100747.00;;;;2087039;28;20217;-46
2022/04/11 04:22:26;;;;;;;2.50;2.07;;;;;19.40;100767.00;;;;2086830;28;20598;-47
2022/04/11 04:23:27;;;;;;;1.90;1.80;;;;;19.40;100753.00;;;;2083260;28;20640;-47
2022/04/11 04:24:27;;;;;;;1.80;1.70;;;;;19.40;100750.00;;;;2086739;28;20706;-47
2022/04/11 04:25:27;;;;;;;2.40;1.63;;;;;19.40;100746.00;;;;2086148;28;20216;-46
2022/04/11 04:26:28;;;;;;;2.00;1.83;;;;;19.40;100738.00;;;;2086738;28;20275;-47
2022/04/11 04:27:28;;;;;;;2.20;1.90;;;;;19.40;100749.00;;;;2086734;28;20216;-47
2022/04/11 04:28:28;;;;;;;2.10;1.90;;;;;19.40;100746.00;;;;2086619;28;20216;-47
2022/04/11 04:29:29;;;;;;;2.23;2.03;;;;;19.40;100753.00;;;;2086176;28;20220;-46
2022/04/11 04:30:29;;;;;;;2.10;1.90;;;;;19.40;100755.00;;;;2078473;28;20220;-47
2022/04/11 04:31:30;;;;;;;2.37;1.83;;;;;19.40;100753.00;;;;2084686;28;21222;-46
2022/04/11 04:32:30;;;;;;;2.70;2.10;;;;;19.40;100751.00;;;;2087305;28;20855;-46
2022/04/11 04:33:31;;;;;;;1.90;1.80;;;;;19.40;100750.00;;;;2082707;28;20217;-46
2022/04/11 04:34:31;;;;;;;2.20;2.00;;;;;19.40;100756.00;;;;2082765;28;20213;-47
2022/04/11 04:35:32;;;;;;;1.77;1.60;;;;;19.40;100753.00;;;;2078229;28;20480;-46
2022/04/11 04:36:32;;;;;;;2.20;2.00;;;;;19.40;100752.00;;;;2078747;28;20224;-46
2022/04/11 04:37:32;;;;;;;2.03;1.80;;;;;19.40;100756.00;;;;2078898;28;20273;-47
2022/04/11 04:38:33;;;;;;;1.83;1.63;;;;;19.40;100756.00;;;;2084305;28;20216;-46
2022/04/11 04:39:33;;;;;;;2.17;1.97;;;;;19.40;100749.00;;;;2086741;28;20209;-46
2022/04/11 04:40:33;;;;;;;2.57;2.07;;;;;19.40;100757.00;;;;2080019;28;20289;-46
2022/04/11 04:41:34;;;;;;;1.73;1.63;;;;;19.40;100748.00;;;;2082519;28;20212;-45
2022/04/11 04:42:34;;;;;;;1.90;1.70;;;;;19.40;100751.00;;;;2086309;28;20220;-45
2022/04/11 04:43:34;;;;;;;1.90;1.80;;;;;19.40;100757.00;;;;2086987;28;20212;-46
2022/04/11 04:44:40;;;;;;;2.20;1.80;;;;;19.40;100757.00;;;;2087160;28;20216;-45
2022/04/11 04:45:41;;;;;;;2.17;1.98;;;;;19.40;100753.00;;;;2086473;28;20251;-45
2022/04/11 04:46:41;;;;;;;2.03;1.90;;;;;19.40;100752.00;;;;2085570;28;20201;-46
2022/04/11 04:47:41;;;;;;;1.90;1.80;;;;;19.40;100758.00;;;;2078898;28;20225;-46
2022/04/11 04:48:42;;;;;;;2.10;1.90;;;;;19.40;100764.00;;;;2078814;28;20235;-46
2022/04/11 04:49:42;;;;;;;2.00;1.80;;;;;19.40;100754.00;;;;2079160;28;20221;-46
2022/04/11 04:50:43;;;;;;;1.77;1.67;;;;;19.40;100755.00;;;;2077393;28;20213;-46
2022/04/11 04:51:43;;;;;;;2.40;1.80;;;;;19.40;100759.00;;;;2084920;28;20205;-46
2022/04/11 04:52:43;;;;;;;2.40;1.80;;;;;19.40;100759.00;;;;2087287;28;20713;-46
2022/04/11 04:53:44;;;;;;;2.30;2.10;;;;;19.40;100759.00;;;;2087040;28;20593;-46
2022/04/11 04:54:44;;;;;;;2.23;1.80;;;;;19.40;100760.00;;;;2085755;28;20575;-46
2022/04/11 04:55:44;;;;;;;2.23;1.77;;;;;19.40;100760.00;;;;2083551;28;20632;-46
2022/04/11 04:56:49;;;;;;;2.20;1.97;;;;;19.40;100754.00;;;;2086774;28;20942;-46
2022/04/11 04:57:49;;;;;;;1.90;1.80;;;;;19.40;100756.00;;;;2086913;28;20212;-45
2022/04/11 04:58:51;;;;;;;2.20;2.00;;;;;19.40;100753.00;;;;2087045;28;20224;-46
2022/04/11 04:59:52;;;;;;;2.35;1.80;;;;;19.40;100754.00;;;;2087073;28;20209;-46